Maxwell Air Force Base
KMXF : now visible

Airfield :











YOU CAN JOIN US ON...

 
LOGIN :

Register | Disclaimer

   EN    FR    IT 

 









Legend :    VFR   Marginal VFR   IFR   Intensive IFR   Very Intensive IFR
Visi :
Ceiling :
>= 8 km
>= 3000ft
5 to 8 km
1000 to 3000 ft
1500m to 5 km
500 to 1000 ft
800 to 1500m
200 to 500 ft
< 800m
< 200 ft
Symbols :   Thunderstorms  Fog  Heavy snow  Heavy precipitations  Wind > 20 kt






- Airport Elevation : 171 ft


KMXF - Maxwell Air Force Base

CURRENT METAR :
  • 270256Z AUTO 00000KT 10SM CLR 27/21 A2995 RMK AO2 SLP143 T02690212 52017 $

EXPIRED METARs :
  • 270156Z AUTO 00000KT 10SM CLR 27/21 A2993 RMK AO2 SLP136 T02720212 $
  • 270056Z AUTO 00000KT 9SM CLR 29/20 A2991 RMK AO2 SLP129 T02890195 $

TAF AMD TAF KMXF
Valid from the 26 at 22:00 until the 28 at 01:00 UTC


262225Z 2622/2801 VRB06KT 9000 -SHRA SCT045 QNH2990INS
TEMPO 2622/2702 VRB20G30KT 9000 -TSRA BKN055CB
BECMG 2702/2703 VRB06KT 9999 NSW SCT045 QNH2995INS
TEMPO 2718/2800 VRB30G40KT 9000 -TSRA BKN055CB
BECMG 2800/2801 VRB06KT 9999 SCT040 QNH2996INS TX35/2622Z TN24/2711Z LAST NO AMDS AFT 2703 NEXT 2711
KZTL FIR / North America



MET'MAP, your aeronautical weather chart ! - Copyright ORBIFLY December 2007 - Disclaimer

ORBIFLY MET'MAP TEAM :

Programming & Development : Alexandra Zaïnal
Concept & original design : Baudouin d'Aumeries
Assistance for programming : Marc-Olivier Méhu
Technical & hardware support : Manuel Goepfert

Contact : metmap@orbifly.com




SOURCES & CREDITS :

   NOAA       Earth
Advisory